createdAt,value
2022-07-30T00:01:20.530Z,100373.66
2022-07-30T00:06:22.275Z,100382.09
2022-07-30T00:11:27.611Z,100370.25
2022-07-30T00:16:29.889Z,100367.53
2022-07-30T00:21:36.151Z,100360.91
2022-07-30T00:26:40.227Z,100360.66
2022-07-30T00:31:42.003Z,100358.75
2022-07-30T00:36:44.556Z,100351.53
2022-07-30T00:41:54.316Z,100347.09
2022-07-30T00:46:56.922Z,100347.09
2022-07-30T00:51:58.701Z,100348.19
2022-07-30T00:57:00.720Z,100345.97
2022-07-30T01:02:03.582Z,100356.13
2022-07-30T01:07:05.325Z,100349.97
2022-07-30T01:12:08.217Z,100342.19
2022-07-30T01:17:10.200Z,100346.81
2022-07-30T01:22:30.934Z,100336.22
2022-07-30T01:27:42.978Z,100325.09
2022-07-30T01:32:46.948Z,100318.06
2022-07-30T01:37:49.910Z,100323.41
2022-07-30T01:42:54.979Z,100327.53
2022-07-30T01:48:00.256Z,100329.66
2022-07-30T01:53:03.274Z,100329.47
2022-07-30T01:58:06.359Z,100333.47
2022-07-30T02:03:10.538Z,100335.03
2022-07-30T02:08:44.255Z,100346.81
2022-07-30T02:13:55.802Z,100344.09
2022-07-30T02:19:04.386Z,100348.03
2022-07-30T02:24:19.975Z,100355.63
2022-07-30T02:29:24.130Z,100355.50
2022-07-30T02:34:27.432Z,100352.72
2022-07-30T02:39:30.868Z,100362.59
2022-07-30T02:44:34.243Z,100368.28
2022-07-30T02:49:36.991Z,100368.47
2022-07-30T02:54:42.170Z,100369.94
2022-07-30T02:59:44.853Z,100369.53
2022-07-30T03:04:49.178Z,100371.59
2022-07-30T03:09:55.817Z,100372.03
2022-07-30T03:14:59.612Z,100372.13
2022-07-30T03:20:02.460Z,100369.56
2022-07-30T03:25:05.736Z,100373.06
2022-07-30T03:30:08.199Z,100371.63
2022-07-30T03:35:16.934Z,100379.56
2022-07-30T03:40:21.392Z,100384.41
2022-07-30T03:45:23.540Z,100389.78
2022-07-30T03:50:29.229Z,100389.19
2022-07-30T03:55:32.004Z,100395.09
2022-07-30T04:00:52.134Z,100393.69
2022-07-30T04:05:53.814Z,100396.69
2022-07-30T04:10:55.586Z,100395.34
2022-07-30T04:16:39.425Z,100405.63
2022-07-30T04:21:47.835Z,100404.16
2022-07-30T04:26:50.318Z,100410.44
2022-07-30T04:31:54.149Z,100414.28
2022-07-30T04:37:16.947Z,100416.53
2022-07-30T04:42:18.929Z,100425.69
2022-07-30T04:47:28.889Z,100438.78
2022-07-30T04:52:49.264Z,100441.72
2022-07-30T04:57:57.940Z,100457.22
2022-07-30T05:03:02.374Z,100460.34
2022-07-30T05:08:04.809Z,100473.41
2022-07-30T05:13:14.535Z,100480.09
2022-07-30T05:18:16.580Z,100495.56
2022-07-30T05:23:18.927Z,100499.56
2022-07-30T05:28:30.640Z,100504.59
2022-07-30T05:33:41.335Z,100522.28
2022-07-30T05:38:49.245Z,100535.28
2022-07-30T05:44:11.767Z,100535.88
2022-07-30T05:49:15.588Z,100545.78
2022-07-30T05:54:17.209Z,100553.59
2022-07-30T05:59:45.042Z,100555.59
2022-07-30T06:05:05.272Z,100570.00
2022-07-30T06:10:07.358Z,100586.66
2022-07-30T06:15:10.832Z,100588.75
2022-07-30T06:20:15.694Z,100609.97
2022-07-30T06:25:28.702Z,100617.16
2022-07-30T06:30:31.344Z,100622.06
2022-07-30T06:35:39.356Z,100638.66
2022-07-30T06:40:43.351Z,100639.81
2022-07-30T06:45:53.114Z,100645.06
2022-07-30T06:50:58.870Z,100653.50
2022-07-30T06:56:01.734Z,100665.63
2022-07-30T07:01:12.147Z,100681.50
2022-07-30T07:06:13.918Z,100696.25
2022-07-30T07:11:17.034Z,100691.84
2022-07-30T07:16:25.228Z,100697.34
2022-07-30T07:21:28.363Z,100691.47
2022-07-30T07:26:31.871Z,100683.84
2022-07-30T07:32:07.117Z,100688.22
2022-07-30T07:36:55.172Z,100696.25
2022-07-30T07:41:57.908Z,100696.53
2022-07-30T07:47:02.527Z,100705.66
2022-07-30T07:52:08.520Z,100702.34
2022-07-30T07:57:11.609Z,100706.63
2022-07-30T08:02:17.530Z,100710.22
2022-07-30T08:07:34.410Z,100714.72
2022-07-30T08:12:54.445Z,100724.91
2022-07-30T08:18:14.691Z,100742.13
2022-07-30T08:23:24.354Z,100738.16
2022-07-30T08:28:36.510Z,100757.28
2022-07-30T08:33:40.153Z,100760.00
2022-07-30T08:38:42.609Z,100737.53
2022-07-30T08:43:47.299Z,100732.59
2022-07-30T08:53:52.679Z,100745.53
2022-07-30T08:58:55.733Z,100750.16
2022-07-30T09:03:57.630Z,100741.03
2022-07-30T09:09:01.419Z,100776.34
2022-07-30T09:14:11.255Z,100787.31
2022-07-30T09:19:18.342Z,100790.28
2022-07-30T09:24:20.988Z,100815.50
2022-07-30T09:29:59.487Z,100818.41
2022-07-30T09:35:20.414Z,100842.75
2022-07-30T09:40:57.767Z,100867.59
2022-07-30T09:46:15.702Z,100849.22
2022-07-30T09:51:19.332Z,100848.72
2022-07-30T09:56:27.145Z,100810.41
2022-07-30T10:01:56.337Z,100787.38
2022-07-30T10:07:31.352Z,100822.84
2022-07-30T10:12:46.451Z,100814.84
2022-07-30T10:17:50.999Z,100776.31
2022-07-30T10:23:26.464Z,100832.22
2022-07-30T10:28:52.794Z,100807.94
2022-07-30T10:33:54.904Z,100755.16
2022-07-30T10:38:57.071Z,100727.31
2022-07-30T10:44:26.422Z,100768.03
2022-07-30T10:49:30.322Z,100769.06
2022-07-30T10:54:47.162Z,100798.53
2022-07-30T11:00:01.139Z,100809.34
2022-07-30T11:05:18.196Z,100841.09
2022-07-30T11:10:40.598Z,100838.22
2022-07-30T11:15:59.855Z,100856.16
2022-07-30T11:21:21.274Z,100839.81
2022-07-30T11:26:38.627Z,100807.56
2022-07-30T11:31:56.263Z,100779.19
2022-07-30T11:37:22.232Z,100808.28
2022-07-30T11:42:29.943Z,100825.03
2022-07-30T11:47:31.824Z,100822.09
2022-07-30T11:52:34.335Z,100833.97
2022-07-30T11:57:42.709Z,100746.22
2022-07-30T12:02:45.212Z,100750.91
2022-07-30T12:07:46.852Z,100798.25
2022-07-30T12:12:48.441Z,100785.13
2022-07-30T12:18:00.756Z,100798.16
2022-07-30T12:23:13.038Z,100839.06
2022-07-30T12:28:21.647Z,100900.16
2022-07-30T12:33:24.258Z,100930.91
2022-07-30T12:38:27.830Z,100905.38
2022-07-30T12:44:02.024Z,100851.44
2022-07-30T12:49:19.147Z,100835.56
2022-07-30T12:54:25.054Z,100840.81
2022-07-30T12:59:27.077Z,100907.19
2022-07-30T13:04:29.345Z,100912.94
2022-07-30T13:09:30.899Z,100899.09
2022-07-30T13:14:32.912Z,100890.56
2022-07-30T13:19:34.518Z,100864.72
2022-07-30T13:24:36.061Z,100869.97
2022-07-30T13:29:37.598Z,100869.69
2022-07-30T13:34:40.165Z,100850.50
2022-07-30T13:39:41.714Z,100845.91
2022-07-30T13:44:43.316Z,100883.56
2022-07-30T13:49:49.724Z,100844.97
2022-07-30T13:54:53.625Z,100796.69
2022-07-30T13:59:55.170Z,100794.38
2022-07-30T14:04:56.700Z,100806.53
2022-07-30T14:09:58.243Z,100837.66
2022-07-30T14:14:59.927Z,100919.28
2022-07-30T14:20:01.672Z,100950.38
2022-07-30T14:25:03.792Z,100889.41
2022-07-30T14:30:07.711Z,100872.25
2022-07-30T14:35:10.515Z,100915.81
2022-07-30T14:40:15.642Z,100949.97
2022-07-30T14:45:17.256Z,100920.84
2022-07-30T14:50:19.133Z,100918.59
2022-07-30T14:55:20.889Z,100922.25
2022-07-30T15:00:24.400Z,100867.56
2022-07-30T15:05:26.099Z,100915.69
2022-07-30T15:10:27.851Z,100932.78
2022-07-30T15:15:29.681Z,100946.31
2022-07-30T15:20:37.919Z,100906.56
2022-07-30T15:25:39.472Z,100895.84
2022-07-30T15:30:41.317Z,100925.94
2022-07-30T15:35:44.899Z,100929.69
2022-07-30T15:40:46.466Z,100886.31
2022-07-30T15:45:52.399Z,100929.22
2022-07-30T15:51:02.450Z,100932.06
2022-07-30T15:56:04.592Z,100876.03
2022-07-30T16:01:06.353Z,100832.63
2022-07-30T16:06:08.084Z,100813.84
2022-07-30T16:11:10.812Z,100859.56
2022-07-30T16:16:12.607Z,100831.00
2022-07-30T16:21:14.296Z,100785.91
2022-07-30T16:26:15.910Z,100781.38
2022-07-30T16:31:17.611Z,100780.50
2022-07-30T16:36:19.249Z,100741.91
2022-07-30T16:41:20.821Z,100729.81
2022-07-30T16:46:23.749Z,100718.03
2022-07-30T16:51:25.420Z,100756.66
2022-07-30T16:56:26.983Z,100770.09
2022-07-30T17:01:28.804Z,100759.91
2022-07-30T17:06:30.494Z,100746.97
2022-07-30T17:11:51.821Z,100743.88
2022-07-30T17:16:53.650Z,100722.56
2022-07-30T17:21:55.239Z,100690.88
2022-07-30T17:26:57.291Z,100719.53
2022-07-30T17:31:59.114Z,100734.19
2022-07-30T17:37:00.695Z,100743.50
2022-07-30T17:42:03.157Z,100756.78
2022-07-30T17:47:04.968Z,100733.66
2022-07-30T17:52:06.674Z,100715.50
2022-07-30T17:57:08.270Z,100690.88
2022-07-30T18:02:09.866Z,100659.28
2022-07-30T18:07:11.405Z,100632.63
2022-07-30T18:12:14.238Z,100600.88
2022-07-30T18:17:15.815Z,100574.63
2022-07-30T18:22:29.324Z,100561.44
2022-07-30T18:27:31.464Z,100558.19
2022-07-30T18:32:33.072Z,100559.91
2022-07-30T18:37:41.275Z,100554.91
2022-07-30T18:42:43.853Z,100541.06
2022-07-30T18:47:46.503Z,100516.81
2022-07-30T18:52:48.241Z,100493.22
2022-07-30T18:57:52.301Z,100461.72
2022-07-30T19:02:54.083Z,100452.97
2022-07-30T19:07:58.377Z,100420.63
2022-07-30T19:13:01.220Z,100392.19
2022-07-30T19:18:02.905Z,100356.50
2022-07-30T19:23:06.970Z,100305.44
2022-07-30T19:28:08.607Z,100257.06
2022-07-30T19:33:15.163Z,100229.38
2022-07-30T19:38:21.760Z,100199.56
2022-07-30T19:43:24.558Z,100172.97
2022-07-30T19:48:29.486Z,100163.41
2022-07-30T19:53:34.637Z,100136.41
2022-07-30T19:58:36.720Z,100129.94
2022-07-30T20:03:39.072Z,100158.97
2022-07-30T20:08:41.344Z,100174.09
2022-07-30T20:13:46.892Z,100190.19
2022-07-30T20:18:51.540Z,100192.53
2022-07-30T20:23:54.051Z,100202.53
2022-07-30T20:28:55.598Z,100234.50
2022-07-30T20:33:58.144Z,100259.75
2022-07-30T20:38:59.688Z,100287.09
2022-07-30T20:44:02.562Z,100324.47
2022-07-30T20:49:04.834Z,100351.19
2022-07-30T20:54:08.539Z,100375.22
2022-07-30T20:59:10.321Z,100375.59
2022-07-30T21:04:11.926Z,100370.25
2022-07-30T21:09:29.159Z,100378.59
2022-07-30T21:14:50.832Z,100385.94
2022-07-30T21:19:53.016Z,100393.28
2022-07-30T21:24:56.658Z,100406.66
2022-07-30T21:29:58.223Z,100427.06
2022-07-30T21:35:01.517Z,100424.06
2022-07-30T21:40:10.614Z,100430.28
2022-07-30T21:45:12.236Z,100447.59
2022-07-30T21:50:14.231Z,100454.09
2022-07-30T21:55:17.757Z,100461.97
2022-07-30T22:00:21.974Z,100472.03
2022-07-30T22:05:38.823Z,100490.16
2022-07-30T22:10:42.585Z,100488.78
2022-07-30T22:15:44.264Z,100491.63
2022-07-30T22:20:45.843Z,100492.00
2022-07-30T22:25:48.063Z,100497.38
2022-07-30T22:30:51.551Z,100496.63
2022-07-30T22:35:53.222Z,100495.84
2022-07-30T22:40:54.953Z,100481.16
2022-07-30T22:45:58.710Z,100475.38
2022-07-30T22:51:00.351Z,100503.72
2022-07-30T22:56:04.242Z,100501.75
2022-07-30T23:01:05.819Z,100515.66
2022-07-30T23:06:08.695Z,100516.25
2022-07-30T23:11:16.811Z,100504.59
2022-07-30T23:16:18.356Z,100514.56
2022-07-30T23:21:20.796Z,100513.47
2022-07-30T23:26:22.350Z,100518.19
2022-07-30T23:31:26.778Z,100534.00
2022-07-30T23:36:28.635Z,100521.78
2022-07-30T23:41:32.991Z,100518.97
2022-07-30T23:46:34.595Z,100523.94
2022-07-30T23:51:36.151Z,100520.03
2022-07-30T23:56:39.186Z,100514.19
